Time;durP1;ratioP1;P1;durP2;ratioP2;P2;SDS_P1;SDS_P2;PMS_P1;PMS_P2;Temp;Humidity;BMP_temperature;BMP_pressure;BME280_temperature;BME280_humidity;BME280_pressure;Samples;Min_cycle;Max_cycle;Signal;HPM_P1;HPM_P2
2022/06/19 00:01:36;;;;;;;3.90;3.70;;;;;;;19.91;61.03;99611.08;214877;1276;140364;-66
2022/06/19 00:06:44;;;;;;;4.10;3.90;;;;;;;19.87;61.21;99604.83;215117;1276;139927;-66
2022/06/19 00:11:49;;;;;;;4.60;3.40;;;;;;;19.84;61.37;99602.73;213867;1276;139945;-66
2022/06/19 00:16:55;;;;;;;5.50;4.80;;;;;;;19.82;61.53;99602.94;213864;1276;210418;-66
2022/06/19 00:22:00;;;;;;;2.90;2.80;;;;;;;19.77;61.62;99600.21;215993;1276;139948;-66
2022/06/19 00:27:05;;;;;;;3.40;3.20;;;;;;;19.69;61.71;99604.14;215945;1277;140822;-66
2022/06/19 00:32:08;;;;;;;3.90;3.50;;;;;;;19.62;61.92;99599.34;214317;1276;140466;-66
2022/06/19 00:37:12;;;;;;;4.30;4.00;;;;;;;19.59;62.13;99600.41;215383;1276;141300;-66
2022/06/19 00:42:17;;;;;;;4.80;3.60;;;;;;;19.58;62.24;99602.43;214699;1276;140428;-66
2022/06/19 00:47:28;;;;;;;4.70;4.30;;;;;;;19.52;62.36;99602.77;214261;1276;141324;-66
2022/06/19 00:52:37;;;;;;;4.50;3.50;;;;;;;19.46;62.54;99606.95;215345;1276;140396;-66
2022/06/19 00:57:49;;;;;;;5.00;4.50;;;;;;;19.48;62.63;99614.81;214558;1276;140851;-66
2022/06/19 01:02:58;;;;;;;4.50;4.20;;;;;;;19.54;62.72;99637.56;215031;1277;142826;-67
2022/06/19 01:08:03;;;;;;;5.90;4.40;;;;;;;19.54;62.71;99657.63;214578;1276;206341;-66
2022/06/19 01:13:09;;;;;;;7.40;4.10;;;;;;;19.56;62.75;99662.28;214153;1276;140716;-66
2022/06/19 01:18:14;;;;;;;3.70;3.50;;;;;;;19.54;62.67;99656.38;213865;1276;140146;-66
2022/06/19 01:23:48;;;;;;;4.60;4.20;;;;;;;19.46;62.64;99660.33;214197;1276;141434;-66
2022/06/19 01:28:56;;;;;;;4.90;4.10;;;;;;;19.33;63.05;99661.52;214301;1276;140138;-66
2022/06/19 01:34:27;;;;;;;5.30;4.90;;;;;;;19.21;63.25;99663.79;213682;1277;140960;-66
2022/06/19 01:39:37;;;;;;;3.70;3.50;;;;;;;18.97;63.18;99660.73;214653;1276;139976;-66
2022/06/19 01:44:43;;;;;;;6.00;4.90;;;;;;;18.83;63.81;99658.92;213320;1277;140495;-66
2022/06/19 01:49:50;;;;;;;4.40;4.10;;;;;;;18.64;64.18;99658.89;213117;1276;140078;-65
2022/06/19 01:55:18;;;;;;;5.40;4.70;;;;;;;18.44;64.31;99656.45;214862;1276;140395;-65
2022/06/19 02:00:25;;;;;;;4.80;4.40;;;;;;;18.27;64.87;99646.09;213106;1274;141045;-66
2022/06/19 02:05:32;;;;;;;5.40;4.60;;;;;;;18.06;65.33;99646.76;215016;1276;140083;-66
2022/06/19 02:10:40;;;;;;;8.80;5.00;;;;;;;17.90;65.67;99638.23;214072;1276;151171;-66
2022/06/19 02:15:47;;;;;;;4.60;4.30;;;;;;;17.70;65.99;99634.97;214899;1276;671570;-66
2022/06/19 02:20:53;;;;;;;6.80;5.30;;;;;;;17.65;66.46;99628.82;215480;1277;139713;-66
2022/06/19 02:25:59;;;;;;;5.70;5.20;;;;;;;17.49;66.55;99629.52;216127;1277;140924;-66
2022/06/19 02:31:06;;;;;;;5.10;4.60;;;;;;;17.34;66.83;99618.29;216095;1277;140325;-66
2022/06/19 02:36:35;;;;;;;4.70;4.40;;;;;;;17.25;67.31;99614.85;216008;1276;141686;-65
2022/06/19 02:41:45;;;;;;;4.30;3.90;;;;;;;17.22;67.81;99604.52;215910;1276;140042;-66
2022/06/19 02:46:49;;;;;;;4.20;3.90;;;;;;;17.23;68.09;99601.23;215300;1276;142264;-66
2022/06/19 02:51:54;;;;;;;4.50;4.10;;;;;;;17.27;68.31;99595.60;214381;1276;142731;-67
2022/06/19 02:56:58;;;;;;;5.00;4.40;;;;;;;17.34;68.58;99598.66;214762;1276;141665;-65
2022/06/19 03:02:03;;;;;;;4.50;4.20;;;;;;;17.48;68.62;99600.05;213526;1276;212126;-66
2022/06/19 03:07:08;;;;;;;4.80;4.30;;;;;;;17.63;68.64;99599.88;214159;1276;139730;-66
2022/06/19 03:12:12;;;;;;;4.70;4.30;;;;;;;17.74;68.63;99595.34;213312;1276;140839;-66
2022/06/19 03:17:22;;;;;;;9.00;4.90;;;;;;;17.81;68.50;99582.33;214500;1276;140354;-66
2022/06/19 03:22:31;;;;;;;5.60;5.10;;;;;;;17.91;68.41;99578.79;213193;1277;141282;-64
2022/06/19 03:27:35;;;;;;;6.10;5.30;;;;;;;17.99;68.46;99580.59;214614;1277;140564;-66
2022/06/19 03:32:40;;;;;;;4.70;4.30;;;;;;;18.09;68.20;99579.65;213457;1276;140666;-66
2022/06/19 03:37:46;;;;;;;5.60;5.10;;;;;;;18.21;68.28;99581.73;214034;1276;141242;-66
2022/06/19 03:42:52;;;;;;;5.00;4.70;;;;;;;18.35;68.02;99572.05;213711;1276;151717;-66
2022/06/19 03:47:56;;;;;;;6.20;4.70;;;;;;;18.49;67.74;99567.29;213382;1277;141742;-66
2022/06/19 03:53:01;;;;;;;6.60;5.50;;;;;;;18.65;67.68;99566.86;215085;1276;140743;-66
2022/06/19 03:58:05;;;;;;;7.00;4.20;;;;;;;18.90;67.46;99574.77;215181;1276;161105;-66
2022/06/19 04:03:10;;;;;;;4.80;3.80;;;;;;;19.14;67.07;99570.77;213263;1276;141201;-66
2022/06/19 04:08:14;;;;;;;4.70;4.40;;;;;;;19.27;66.61;99559.10;215633;1276;141824;-67
2022/06/19 04:13:17;;;;;;;5.00;4.50;;;;;;;19.39;66.46;99559.17;214705;1277;141524;-66
2022/06/19 04:18:22;;;;;;;6.00;4.70;;;;;;;19.62;66.28;99545.04;215101;1276;141015;-66
2022/06/19 04:23:31;;;;;;;5.60;5.10;;;;;;;19.96;66.07;99535.61;215305;1275;141383;-66
2022/06/19 04:28:36;;;;;;;4.90;4.10;;;;;;;20.37;65.37;99536.56;215601;1276;141503;-66
2022/06/19 04:33:41;;;;;;;5.90;5.40;;;;;;;20.80;64.60;99533.38;214774;1276;142021;-66
2022/06/19 04:38:47;;;;;;;4.90;4.10;;;;;;;21.81;63.15;99533.17;215449;1277;141148;-66
2022/06/19 04:43:52;;;;;;;6.50;4.50;;;;;;;22.95;61.73;99532.94;214383;1276;140256;-65
2022/06/19 04:48:58;;;;;;;4.60;4.20;;;;;;;24.21;59.46;99532.11;214803;1276;140253;-65
2022/06/19 04:54:02;;;;;;;3.90;3.70;;;;;;;24.62;58.23;99525.83;213963;1277;142030;-66
2022/06/19 04:59:07;;;;;;;6.50;3.70;;;;;;;24.64;57.43;99526.01;215178;1276;140014;-66
2022/06/19 05:04:13;;;;;;;3.60;3.30;;;;;;;24.89;56.15;99525.60;214071;1277;140748;-66
2022/06/19 05:09:18;;;;;;;3.80;3.50;;;;;;;25.93;54.78;99526.56;214447;1277;140567;-65
2022/06/19 05:14:22;;;;;;;3.10;2.80;;;;;;;27.75;52.47;99529.34;214194;1276;140110;-65
2022/06/19 05:19:27;;;;;;;3.50;3.30;;;;;;;29.19;49.85;99529.63;213652;1276;140704;-64
2022/06/19 05:24:31;;;;;;;2.90;2.70;;;;;;;30.41;47.30;99516.64;214175;1276;140465;-64
2022/06/19 05:29:39;;;;;;;2.60;2.40;;;;;;;31.37;45.64;99511.24;213760;1276;140255;-65
2022/06/19 05:34:42;;;;;;;2.40;2.30;;;;;;;32.38;44.06;99508.40;213875;1276;140536;-63
2022/06/19 05:39:51;;;;;;;4.10;2.60;;;;;;;33.03;41.75;99506.45;214624;1276;140544;-65
2022/06/19 05:44:56;;;;;;;2.50;2.30;;;;;;;33.64;41.08;99509.61;214762;1276;140452;-65
2022/06/19 05:50:00;;;;;;;5.00;2.40;;;;;;;34.59;39.77;99507.41;214323;1276;140496;-65
2022/06/19 05:55:06;;;;;;;3.60;2.50;;;;;;;35.63;38.45;99496.12;214251;1276;140152;-68
2022/06/19 06:00:10;;;;;;;3.90;2.10;;;;;;;36.25;36.97;99502.61;214671;1277;141065;-64
2022/06/19 06:05:15;;;;;;;2.10;2.00;;;;;;;36.87;35.90;99506.78;213553;1277;139805;-66
2022/06/19 06:10:21;;;;;;;3.50;2.10;;;;;;;37.25;34.87;99513.89;215462;1276;151917;-66
2022/06/19 06:15:25;;;;;;;2.00;1.80;;;;;;;37.72;34.43;99509.41;215786;1276;140058;-67
2022/06/19 06:20:30;;;;;;;1.60;1.60;;;;;;;38.09;33.45;99496.67;215877;1276;154822;-66
2022/06/19 06:25:37;;;;;;;1.50;1.40;;;;;;;38.30;32.45;99494.52;215839;1276;140707;-65
2022/06/19 06:30:49;;;;;;;2.00;1.30;;;;;;;37.88;32.18;99496.42;215739;1276;140102;-66
2022/06/19 06:35:56;;;;;;;3.90;2.00;;;;;;;38.21;32.34;99493.56;215757;1276;140646;-65
2022/06/19 06:41:00;;;;;;;2.80;1.90;;;;;;;38.73;31.76;99484.41;213334;1277;140026;-65
2022/06/19 06:46:13;;;;;;;1.70;1.60;;;;;;;38.90;31.24;99469.85;214313;1276;140081;-64
2022/06/19 06:51:22;;;;;;;1.40;1.30;;;;;;;39.04;31.35;99471.96;214345;1276;140195;-65
2022/06/19 06:56:33;;;;;;;1.50;1.50;;;;;;;39.12;30.64;99485.81;214097;1276;140170;-65
2022/06/19 07:01:38;;;;;;;1.80;1.30;;;;;;;39.27;30.29;99480.95;213826;1276;139496;-66
2022/06/19 07:06:42;;;;;;;1.90;1.40;;;;;;;39.56;30.16;99471.42;214943;1276;140208;-67
2022/06/19 07:11:48;;;;;;;2.00;1.80;;;;;;;39.46;29.63;99466.64;213234;1276;140479;-65
2022/06/19 07:16:52;;;;;;;2.40;2.10;;;;;;;38.98;29.50;99464.44;213255;1276;140951;-65
2022/06/19 07:21:56;;;;;;;3.10;1.90;;;;;;;39.05;30.54;99464.52;214512;1276;141608;-65
2022/06/19 07:27:01;;;;;;;1.90;1.70;;;;;;;38.56;30.11;99464.73;212991;1276;220797;-65
2022/06/19 07:32:06;;;;;;;2.10;1.60;;;;;;;37.77;30.70;99458.75;214303;1277;141206;-66
2022/06/19 07:37:15;;;;;;;1.60;1.50;;;;;;;37.39;31.74;99456.08;214548;1276;140412;-66
2022/06/19 07:42:23;;;;;;;1.30;1.20;;;;;;;36.83;31.62;99452.54;213665;1276;140501;-66
2022/06/19 07:52:51;;;;;;;1.70;1.60;;;;;;;35.63;33.63;99435.30;214443;1276;151591;-65
2022/06/19 07:57:59;;;;;;;2.50;2.30;;;;;;;35.61;35.09;99437.84;212954;1277;140077;-65
2022/06/19 08:03:05;;;;;;;1.80;1.70;;;;;;;35.13;34.42;99442.09;213711;1277;143244;-66
2022/06/19 08:08:32;;;;;;;2.30;2.20;;;;;;;34.61;35.15;99434.27;213602;1277;140449;-65
2022/06/19 08:13:38;;;;;;;5.10;2.80;;;;;;;34.17;35.72;99423.84;214843;1276;141532;-67
2022/06/19 08:18:42;;;;;;;3.00;2.40;;;;;;;34.13;36.90;99427.26;215262;1277;139693;-66
2022/06/19 08:23:46;;;;;;;4.30;2.40;;;;;;;34.15;36.96;99434.13;215138;1276;140346;-65
2022/06/19 08:29:03;;;;;;;2.20;2.00;;;;;;;34.03;36.74;99432.51;215749;1277;139318;-66
2022/06/19 08:34:10;;;;;;;2.60;2.30;;;;;;;33.85;36.88;99432.38;214816;1276;140242;-65
2022/06/19 08:39:19;;;;;;;5.90;3.20;;;;;;;33.65;36.96;99425.30;214917;1276;140517;-65
2022/06/19 08:44:31;;;;;;;5.40;2.40;;;;;;;33.47;37.59;99430.05;214965;1277;141363;-65
2022/06/19 08:49:42;;;;;;;4.00;2.70;;;;;;;33.46;37.72;99421.84;214436;1277;139994;-66
2022/06/19 08:55:05;;;;;;;2.40;2.20;;;;;;;33.41;37.73;99419.48;213670;1277;139635;-66
2022/06/19 09:00:20;;;;;;;2.20;2.00;;;;;;;33.39;37.76;99419.07;214135;1276;140171;-66
2022/06/19 09:05:47;;;;;;;3.70;2.00;;;;;;;33.58;38.21;99419.06;215140;1276;141099;-65
2022/06/19 09:11:14;;;;;;;2.50;2.20;;;;;;;33.78;38.07;99410.27;214094;1277;139513;-65
2022/06/19 09:16:37;;;;;;;3.80;2.50;;;;;;;33.63;37.33;99405.64;213099;1277;139466;-66
2022/06/19 09:22:03;;;;;;;8.30;2.40;;;;;;;33.48;37.41;99398.16;213992;1275;140230;-65
2022/06/19 09:27:12;;;;;;;8.30;2.50;;;;;;;33.41;37.83;99394.37;213129;1277;139632;-65
2022/06/19 09:32:44;;;;;;;4.90;2.70;;;;;;;33.39;38.36;99389.48;214257;1277;140187;-65
2022/06/19 09:38:13;;;;;;;3.90;2.80;;;;;;;33.21;37.03;99377.00;213274;1277;139861;-66
2022/06/19 09:43:36;;;;;;;3.40;1.90;;;;;;;33.00;37.76;99366.11;215553;1277;141017;-66
2022/06/19 09:48:47;;;;;;;2.60;2.40;;;;;;;33.02;37.98;99360.51;214427;1277;139389;-66
2022/06/19 09:54:09;;;;;;;2.60;2.30;;;;;;;33.05;37.82;99361.05;214598;1276;139778;-65
2022/06/19 09:59:48;;;;;;;3.50;2.40;;;;;;;33.05;37.63;99363.81;215031;1277;139748;-65
2022/06/19 10:05:12;;;;;;;3.00;2.10;;;;;;;32.96;37.85;99358.07;215305;1276;142163;-67
2022/06/19 10:10:58;;;;;;;3.40;2.20;;;;;;;33.15;37.96;99347.41;214755;1276;140196;-65
2022/06/19 10:16:13;;;;;;;2.20;2.10;;;;;;;33.34;37.97;99333.35;215137;1277;140510;-66
2022/06/19 10:27:34;;;;;;;8.20;2.90;;;;;;;33.33;37.79;99318.68;216004;1277;139528;-66
2022/06/19 10:33:16;;;;;;;5.00;2.60;;;;;;;33.28;37.43;99314.18;214828;1277;140666;-65
2022/06/19 10:38:44;;;;;;;3.30;2.40;;;;;;;33.20;37.40;99308.58;214753;1276;140776;-65
2022/06/19 10:43:58;;;;;;;10.80;2.50;;;;;;;33.17;37.56;99299.90;214131;1276;141891;-64
2022/06/19 10:49:20;;;;;;;5.60;2.40;;;;;;;33.34;37.78;99301.46;214320;1277;141964;-65
2022/06/19 10:54:48;;;;;;;1.90;1.80;;;;;;;33.38;37.52;99295.92;214266;1276;141669;-64
2022/06/19 10:59:53;;;;;;;3.70;2.80;;;;;;;33.37;37.04;99285.27;214381;1276;140047;-67
2022/06/19 11:05:02;;;;;;;2.30;1.90;;;;;;;33.32;36.18;99290.33;213203;1276;139812;-65
2022/06/19 11:10:21;;;;;;;2.50;2.30;;;;;;;33.26;36.01;99290.11;213544;1276;141204;-66
2022/06/19 11:15:31;;;;;;;2.80;2.00;;;;;;;33.31;36.06;99290.75;213876;1277;140159;-66
2022/06/19 11:20:35;;;;;;;2.00;1.90;;;;;;;33.27;35.75;99287.60;213216;1276;140523;-65
2022/06/19 11:25:40;;;;;;;5.60;2.30;;;;;;;32.97;35.12;99288.95;214480;1277;140559;-65
2022/06/19 11:31:12;;;;;;;3.20;2.20;;;;;;;32.78;35.82;99283.20;214326;1276;151443;-64
2022/06/19 11:36:42;;;;;;;3.30;2.00;;;;;;;32.93;36.19;99276.50;213581;1276;141834;-64
2022/06/19 11:41:47;;;;;;;7.00;2.40;;;;;;;33.01;35.55;99275.94;214216;1277;141704;-66
2022/06/19 11:46:54;;;;;;;6.90;2.50;;;;;;;32.90;35.22;99264.83;213064;1276;141167;-65
2022/06/19 11:52:16;;;;;;;4.10;2.70;;;;;;;32.90;35.52;99257.26;213924;1274;140928;-66
2022/06/19 11:57:32;;;;;;;2.20;2.10;;;;;;;32.94;35.80;99254.17;214448;1276;141041;-66
2022/06/19 12:02:40;;;;;;;3.00;2.80;;;;;;;33.00;35.66;99253.38;215463;1276;144018;-67
2022/06/19 12:07:46;;;;;;;3.70;2.30;;;;;;;32.99;35.40;99242.33;215585;1276;140212;-69
2022/06/19 12:13:00;;;;;;;7.20;2.40;;;;;;;32.99;35.27;99240.60;214961;1276;161108;-66
2022/06/19 12:18:24;;;;;;;5.10;2.20;;;;;;;32.78;35.20;99232.80;215645;1276;140941;-66
2022/06/19 12:23:36;;;;;;;9.90;2.70;;;;;;;32.64;35.04;99221.37;215841;1276;141161;-65
2022/06/19 12:28:49;;;;;;;2.40;2.20;;;;;;;32.70;35.31;99216.64;215628;1277;141627;-67
2022/06/19 12:34:04;;;;;;;2.90;2.70;;;;;;;32.78;35.00;99208.20;213630;1276;140831;-65
2022/06/19 12:39:18;;;;;;;4.00;2.30;;;;;;;32.68;34.64;99205.67;214429;1276;140438;-66
2022/06/19 12:44:39;;;;;;;2.60;1.90;;;;;;;32.58;34.70;99195.83;214281;1276;140760;-66
2022/06/19 12:50:04;;;;;;;4.60;2.40;;;;;;;32.48;34.41;99190.46;214452;1276;139797;-65
2022/06/19 12:55:30;;;;;;;5.50;2.50;;;;;;;32.35;34.65;99175.58;214620;1276;140628;-66
2022/06/19 13:00:59;;;;;;;2.70;1.60;;;;;;;32.41;35.03;99167.69;212854;1276;139883;-65
2022/06/19 13:06:35;;;;;;;4.00;2.20;;;;;;;32.46;35.04;99161.84;214625;1276;140514;-66
2022/06/19 13:12:11;;;;;;;5.50;2.10;;;;;;;32.41;34.60;99160.60;213830;1276;139824;-65
2022/06/19 13:17:27;;;;;;;6.60;2.30;;;;;;;32.40;34.91;99145.23;213766;1276;139745;-66
2022/06/19 13:22:47;;;;;;;4.20;2.40;;;;;;;32.33;35.16;99129.24;213447;1276;140742;-66
2022/06/19 13:28:08;;;;;;;4.60;2.50;;;;;;;32.32;35.71;99124.12;214114;1275;140593;-64
2022/06/19 13:33:31;;;;;;;3.90;2.00;;;;;;;32.24;35.69;99115.04;213346;1276;142311;-65
2022/06/19 13:38:48;;;;;;;;;;;;;;;32.21;35.26;99103.70;214713;1276;140312;-66
2022/06/19 13:44:09;;;;;;;5.30;2.10;;;;;;;32.05;35.21;99109.61;214874;1277;129069;-66
2022/06/19 13:49:37;;;;;;;7.10;1.80;;;;;;;32.02;34.77;99101.02;214683;1276;140047;-65
2022/06/19 13:54:55;;;;;;;5.00;2.50;;;;;;;31.96;34.14;99097.86;214049;1276;139712;-65
2022/06/19 14:00:27;;;;;;;6.20;2.50;;;;;;;31.91;34.19;99085.56;215188;1276;141497;-65
2022/06/19 14:05:38;;;;;;;8.60;2.80;;;;;;;31.89;33.78;99085.56;214919;1276;141290;-66
2022/06/19 14:10:58;;;;;;;5.50;1.90;;;;;;;31.88;33.31;99079.66;215820;1276;139840;-65
2022/06/19 14:16:24;;;;;;;5.50;2.50;;;;;;;31.82;33.25;99070.84;215541;1274;361737;-66
2022/06/19 14:21:42;;;;;;;6.50;2.50;;;;;;;31.81;33.42;99059.41;215842;1274;140703;-69
2022/06/19 14:27:01;;;;;;;7.80;2.30;;;;;;;31.91;33.63;99060.60;215785;1276;141613;-69
2022/06/19 14:32:06;;;;;;;8.60;2.50;;;;;;;31.87;33.15;99049.41;214904;1276;140680;-66
2022/06/19 14:37:42;;;;;;;4.80;2.70;;;;;;;31.87;33.75;99044.77;214763;1276;140333;-66
2022/06/19 14:42:55;;;;;;;8.80;3.00;;;;;;;31.73;33.42;99033.74;214172;1277;140161;-69
2022/06/19 14:48:04;;;;;;;9.30;2.40;;;;;;;31.70;33.61;99021.80;215082;1276;142378;-66
2022/06/19 14:53:37;;;;;;;5.30;2.40;;;;;;;31.66;33.92;99016.02;214570;1276;140617;-68
2022/06/19 14:58:46;;;;;;;8.30;2.70;;;;;;;31.62;34.29;99013.10;213088;1276;141243;-64
2022/06/19 15:04:19;;;;;;;5.80;2.20;;;;;;;31.39;34.05;99007.10;214371;1276;139512;-65
2022/06/19 15:09:38;;;;;;;6.00;2.90;;;;;;;31.29;34.07;99003.05;213594;1276;140449;-65
2022/06/19 15:14:45;;;;;;;6.30;2.20;;;;;;;31.20;34.22;98997.46;213958;1274;249286;-66
2022/06/19 15:19:50;;;;;;;4.20;2.50;;;;;;;31.12;34.01;98995.79;213003;1274;141800;-64
2022/06/19 15:24:54;;;;;;;4.70;2.50;;;;;;;31.15;34.42;98988.10;214154;1276;141486;-65
2022/06/19 15:30:07;;;;;;;9.00;3.40;;;;;;;31.22;34.64;98995.23;213518;1276;142854;-63
2022/06/19 15:35:25;;;;;;;11.00;3.40;;;;;;;31.15;34.46;99005.71;213880;1276;144149;-64
2022/06/19 15:40:43;;;;;;;7.10;2.50;;;;;;;31.05;34.19;99006.91;213708;1276;153258;-66
2022/06/19 15:45:59;;;;;;;6.00;2.50;;;;;;;30.84;34.45;99006.46;213895;1276;141500;-65
2022/06/19 15:51:25;;;;;;;9.00;3.10;;;;;;;30.76;34.94;99001.24;213613;1276;141635;-65
2022/06/19 15:56:43;;;;;;;9.60;3.00;;;;;;;30.74;35.10;98997.23;213408;1276;140974;-65
2022/06/19 16:02:04;;;;;;;7.00;3.00;;;;;;;30.64;34.95;98988.21;214652;1276;141021;-66
2022/06/19 16:07:17;;;;;;;8.80;3.30;;;;;;;30.44;35.09;98991.02;215932;1274;140400;-66
2022/06/19 16:12:34;;;;;;;9.30;3.00;;;;;;;30.36;35.27;98986.56;215664;1276;140721;-67
2022/06/19 16:17:39;;;;;;;2.50;2.30;;;;;;;30.27;35.34;98977.01;215830;1276;140906;-65
2022/06/19 16:22:44;;;;;;;10.00;3.80;;;;;;;30.13;35.35;98971.83;214422;1276;141032;-64
2022/06/19 16:27:52;;;;;;;9.20;3.00;;;;;;;30.04;35.56;98966.44;215679;1276;140840;-64
2022/06/19 16:32:57;;;;;;;11.00;3.70;;;;;;;29.93;35.64;98961.23;214998;1276;141349;-64
2022/06/19 16:49:19;;;;;;;12.10;3.80;;;;;;;29.62;36.27;98952.45;214297;1276;140175;-66
2022/06/19 16:54:38;;;;;;;8.30;3.20;;;;;;;29.45;36.41;98948.46;213512;1276;141181;-65
2022/06/19 16:59:46;;;;;;;13.30;3.50;;;;;;;29.30;36.56;98957.56;212887;1276;139900;-63
2022/06/19 17:04:56;;;;;;;9.10;2.90;;;;;;;29.17;36.84;98955.33;213265;1276;139958;-63
2022/06/19 17:10:07;;;;;;;14.70;3.50;;;;;;;29.02;36.90;98942.72;214182;1276;140032;-66
2022/06/19 17:15:13;;;;;;;4.60;2.60;;;;;;;28.88;36.86;98942.65;213989;1276;140194;-64
2022/06/19 17:20:24;;;;;;;4.70;2.70;;;;;;;28.78;37.12;98942.05;213998;1274;140092;-65
2022/06/19 17:25:32;;;;;;;4.30;2.80;;;;;;;28.66;37.48;98935.25;213592;1276;139886;-65
2022/06/19 17:30:58;;;;;;;6.90;3.10;;;;;;;28.51;37.40;98923.95;213866;1276;141600;-66
2022/06/19 17:36:19;;;;;;;12.50;3.60;;;;;;;28.37;37.73;98927.86;213533;1276;140419;-65
2022/06/19 17:41:38;;;;;;;7.70;3.10;;;;;;;28.22;38.00;98933.27;214102;1276;142310;-64
2022/06/19 17:46:44;;;;;;;7.60;3.10;;;;;;;28.11;38.44;98947.77;213512;1276;143418;-65
2022/06/19 17:51:49;;;;;;;10.20;3.20;;;;;;;27.95;38.68;98938.30;213034;1276;140564;-65
2022/06/19 17:56:54;;;;;;;7.50;3.40;;;;;;;27.79;39.03;98946.84;215991;1276;141716;-65
2022/06/19 18:02:13;;;;;;;6.90;2.80;;;;;;;27.66;39.37;98942.50;214124;1277;140171;-64
2022/06/19 18:07:33;;;;;;;7.50;3.70;;;;;;;27.51;39.79;98937.14;215916;1276;140496;-65
2022/06/19 18:12:43;;;;;;;7.90;4.00;;;;;;;27.36;40.16;98940.87;215239;1276;140304;-66
2022/06/19 18:23:35;;;;;;;10.70;2.80;;;;;;;27.06;40.71;98927.84;214696;1276;141078;-65
2022/06/19 18:28:42;;;;;;;9.10;3.80;;;;;;;26.92;41.11;98918.81;215207;1276;140236;-66
2022/06/19 18:33:48;;;;;;;5.90;2.60;;;;;;;26.76;41.40;98922.19;214291;1276;141863;-64
2022/06/19 18:39:05;;;;;;;4.40;3.10;;;;;;;26.63;41.69;98915.68;214841;1276;140626;-65
2022/06/19 18:44:11;;;;;;;4.30;2.90;;;;;;;26.47;42.00;98906.31;214165;1276;139712;-65
2022/06/19 18:49:22;;;;;;;5.20;3.10;;;;;;;26.29;42.42;98904.52;213341;1277;140171;-64
2022/06/19 18:54:38;;;;;;;3.40;3.10;;;;;;;26.06;42.73;98899.59;214450;1276;140026;-64
2022/06/19 18:59:47;;;;;;;9.00;3.30;;;;;;;25.86;43.27;98903.98;213229;1276;140339;-64
2022/06/19 19:04:57;;;;;;;4.20;3.40;;;;;;;25.64;43.75;98910.89;213535;1276;139972;-64
2022/06/19 19:10:06;;;;;;;7.90;3.20;;;;;;;25.45;44.13;98911.20;214139;1277;140230;-64
2022/06/19 19:15:28;;;;;;;5.60;3.20;;;;;;;25.30;44.40;98901.72;214102;1277;141131;-63
2022/06/19 19:20:40;;;;;;;6.10;3.10;;;;;;;25.17;44.42;98905.36;213945;1277;140007;-65
2022/06/19 19:25:50;;;;;;;5.90;3.20;;;;;;;25.06;44.56;98907.12;213893;1277;139698;-67
2022/06/19 19:30:56;;;;;;;4.20;3.90;;;;;;;24.94;44.90;98911.62;213437;1277;140883;-65
2022/06/19 19:36:03;;;;;;;6.40;3.10;;;;;;;24.81;45.03;98922.46;214566;1275;139799;-64
2022/06/19 19:41:10;;;;;;;4.60;3.10;;;;;;;24.69;45.22;98919.66;214520;1276;141541;-65
2022/06/19 19:46:32;;;;;;;3.80;3.30;;;;;;;24.64;45.06;98923.02;214873;1276;139738;-65
2022/06/19 19:51:46;;;;;;;7.90;4.10;;;;;;;24.58;45.41;98932.58;214063;1276;140735;-64
2022/06/19 19:56:51;;;;;;;7.30;3.70;;;;;;;24.51;45.70;98952.38;215337;1276;140597;-64
2022/06/19 20:01:54;;;;;;;6.00;3.60;;;;;;;24.44;45.65;98962.48;215216;1277;140314;-64
2022/06/19 20:12:21;;;;;;;9.90;4.20;;;;;;;24.31;45.72;98965.36;215521;1276;140748;-66
2022/06/19 20:17:26;;;;;;;5.20;3.30;;;;;;;24.20;46.10;98970.52;214908;1277;141366;-68
2022/06/19 20:22:35;;;;;;;6.40;2.90;;;;;;;24.14;46.07;98983.66;215856;1276;154559;-65
2022/06/19 20:27:50;;;;;;;4.60;3.50;;;;;;;24.06;46.32;98988.16;213627;1276;139757;-65
2022/06/19 20:32:57;;;;;;;3.60;3.30;;;;;;;23.98;46.45;98997.15;214829;1276;142799;-65
2022/06/19 20:38:22;;;;;;;7.00;3.40;;;;;;;23.87;46.56;99005.73;214635;1276;139620;-65
2022/06/19 20:43:26;;;;;;;6.50;3.00;;;;;;;23.82;46.54;99004.76;214254;1276;140625;-65
2022/06/19 20:48:31;;;;;;;9.90;3.60;;;;;;;23.75;46.63;99006.09;214104;1276;141387;-66
2022/06/19 20:53:37;;;;;;;2.90;2.70;;;;;;;23.68;46.56;98997.66;214015;1276;141051;-65
2022/06/19 20:58:41;;;;;;;6.40;3.90;;;;;;;23.61;46.60;99004.05;213717;1276;140247;-65
2022/06/19 21:03:45;;;;;;;6.60;3.30;;;;;;;23.57;46.66;99039.12;213071;1276;140676;-66
2022/06/19 21:08:50;;;;;;;3.80;3.20;;;;;;;23.53;46.81;99059.80;213248;1276;139624;-67
2022/06/19 21:13:53;;;;;;;5.10;3.80;;;;;;;23.47;46.73;99065.58;213726;1276;142015;-66
2022/06/19 21:18:57;;;;;;;6.40;3.80;;;;;;;23.39;46.86;99075.41;213709;1276;139460;-65
2022/06/19 21:24:02;;;;;;;3.80;3.50;;;;;;;23.26;47.54;99113.70;214590;1276;140267;-66
2022/06/19 21:29:08;;;;;;;5.00;3.80;;;;;;;23.07;47.74;99090.27;213407;1276;140865;-66
2022/06/19 21:34:12;;;;;;;4.10;3.30;;;;;;;22.93;48.04;99093.92;214740;1276;140183;-66
2022/06/19 21:39:21;;;;;;;5.80;4.20;;;;;;;22.74;48.47;99090.98;214510;1276;140137;-66
2022/06/19 21:44:25;;;;;;;8.50;3.60;;;;;;;22.51;48.84;99077.11;214832;1276;139879;-66
2022/06/19 21:49:31;;;;;;;4.10;3.70;;;;;;;22.26;49.60;99069.35;215203;1276;140469;-65
2022/06/19 21:54:35;;;;;;;4.70;3.20;;;;;;;22.13;50.90;99080.57;215356;1276;141481;-64
2022/06/19 21:59:38;;;;;;;11.40;4.60;;;;;;;22.01;51.33;99072.78;214900;1276;140125;-65
2022/06/19 22:04:42;;;;;;;3.90;3.60;;;;;;;21.87;51.88;99068.23;215946;1276;139959;-65
2022/06/19 22:15:38;;;;;;;6.30;3.00;;;;;;;21.26;52.62;99044.69;215868;1276;141401;-65
2022/06/19 22:20:44;;;;;;;5.10;3.90;;;;;;;21.12;53.12;99062.70;215039;1277;210721;-65
2022/06/19 22:25:49;;;;;;;5.80;3.80;;;;;;;21.10;53.27;99056.42;213716;1277;139731;-66
2022/06/19 22:30:54;;;;;;;8.40;4.10;;;;;;;20.96;53.52;99042.16;214474;1277;140646;-66
2022/06/19 22:35:59;;;;;;;4.50;4.10;;;;;;;20.87;53.72;99035.71;213871;1276;141166;-65
2022/06/19 22:41:04;;;;;;;3.90;3.40;;;;;;;20.88;53.92;99044.92;213810;1277;141886;-66
2022/06/19 22:46:12;;;;;;;5.20;4.50;;;;;;;20.91;53.85;99053.89;214564;1277;162351;-66
2022/06/19 22:51:17;;;;;;;3.70;3.40;;;;;;;20.93;53.95;99050.58;213774;1276;140460;-65
2022/06/19 22:56:22;;;;;;;5.30;4.20;;;;;;;20.93;54.01;99054.58;214845;1276;140806;-65
2022/06/19 23:01:44;;;;;;;4.60;3.80;;;;;;;20.96;53.97;99068.48;214132;1277;140072;-65
2022/06/19 23:06:51;;;;;;;4.90;4.50;;;;;;;20.95;53.99;99050.03;213831;1277;140809;-66
2022/06/19 23:11:56;;;;;;;4.40;4.00;;;;;;;20.88;54.13;99039.13;213238;1276;139502;-66
2022/06/19 23:17:17;;;;;;;6.70;4.00;;;;;;;20.81;54.31;99051.11;213930;1277;141675;-66
2022/06/19 23:22:24;;;;;;;6.90;4.40;;;;;;;20.76;54.91;99055.33;214179;1276;141695;-65
2022/06/19 23:27:30;;;;;;;6.40;5.10;;;;;;;20.70;55.28;99053.54;214387;1276;140544;-65
2022/06/19 23:32:34;;;;;;;5.60;4.40;;;;;;;20.60;55.87;99036.23;213410;1276;139880;-65
2022/06/19 23:37:48;;;;;;;6.50;3.90;;;;;;;20.39;56.45;99025.15;214619;1276;139637;-65
2022/06/19 23:42:54;;;;;;;8.70;5.30;;;;;;;20.23;57.20;99016.02;214714;1277;139808;-66
2022/06/19 23:47:58;;;;;;;21.80;5.10;;;;;;;20.13;57.74;99013.23;213754;1277;140257;-66
2022/06/19 23:53:03;;;;;;;5.50;4.60;;;;;;;20.03;58.22;99017.58;214465;1276;140676;-66
2022/06/19 23:58:16;;;;;;;5.70;4.60;;;;;;;19.91;58.33;98998.66;215896;1277;139836;-66
